createdAt,value
2023-02-05T00:15:41.959Z,2.70
2023-02-05T07:02:02.840Z,4.43
2023-02-05T07:04:51.643Z,5.53
2023-02-05T07:07:19.922Z,7.57
2023-02-05T07:09:47.171Z,7.93
2023-02-05T07:12:16.273Z,8.73
2023-02-05T07:14:44.801Z,6.88
2023-02-05T07:17:12.119Z,5.28
2023-02-05T07:19:39.289Z,10.95
2023-02-05T07:22:06.594Z,4.68
2023-02-05T07:24:33.732Z,5.78
2023-02-05T07:27:00.898Z,7.75
2023-02-05T07:29:52.434Z,7.10
2023-02-05T07:32:19.619Z,1.63
2023-02-05T07:35:02.894Z,2.38
2023-02-05T07:37:30.066Z,1.88
2023-02-05T07:39:57.081Z,3.28
2023-02-05T07:42:24.488Z,2.30
2023-02-05T07:45:08.083Z,1.52
2023-02-05T07:47:35.286Z,2.60
2023-02-05T07:50:02.810Z,2.28
2023-02-05T07:52:34.243Z,5.55
2023-02-05T07:55:41.082Z,5.25
2023-02-05T07:58:09.398Z,6.15
2023-02-05T08:00:46.574Z,3.17
2023-02-05T08:03:35.617Z,2.17
2023-02-05T08:06:07.754Z,5.47
2023-02-05T08:08:35.082Z,4.75
2023-02-05T08:11:05.126Z,10.57
2023-02-05T08:13:33.466Z,8.25
2023-02-05T08:16:10.877Z,2.50
2023-02-05T08:18:38.777Z,2.80
2023-02-05T08:21:11.477Z,4.28
2023-02-05T08:23:41.293Z,3.10
2023-02-05T08:26:08.421Z,4.85
2023-02-05T08:28:35.846Z,4.13
2023-02-05T08:31:16.685Z,6.45
2023-02-05T08:33:46.053Z,5.78
2023-02-05T08:36:13.538Z,2.78
2023-02-05T08:38:40.588Z,5.25
2023-02-05T08:44:33.367Z,3.47
2023-02-05T08:47:02.159Z,4.63
2023-02-05T08:49:29.642Z,5.45
2023-02-05T08:52:04.502Z,2.67
2023-02-05T08:54:38.682Z,3.13
2023-02-05T08:57:09.640Z,4.70
2023-02-05T08:59:36.755Z,1.70
2023-02-05T09:02:37.502Z,2.05
2023-02-05T09:05:14.832Z,1.42
2023-02-05T09:07:43.768Z,1.98
2023-02-05T09:10:42.864Z,4.53
2023-02-05T09:16:21.300Z,6.53
2023-02-05T09:18:48.982Z,10.20
2023-02-05T09:21:16.762Z,2.92
2023-02-05T09:23:44.270Z,2.13
2023-02-05T09:31:04.334Z,5.90
2023-02-05T09:33:32.537Z,13.27
2023-02-05T09:36:09.813Z,5.60
2023-02-05T09:38:45.141Z,7.20
2023-02-05T09:41:15.453Z,13.98
2023-02-05T09:43:57.086Z,13.48
2023-02-05T09:46:46.650Z,4.88
2023-02-05T09:49:42.874Z,10.10
2023-02-05T09:52:23.249Z,5.47
2023-02-05T09:54:58.801Z,5.90
2023-02-05T09:57:35.882Z,9.73
2023-02-05T10:00:39.477Z,5.30
2023-02-05T10:03:37.608Z,1.10
2023-02-05T10:06:12.386Z,5.97
2023-02-05T10:08:57.916Z,1.58
2023-02-05T10:11:36.835Z,1.63
2023-02-05T10:14:32.364Z,7.70
2023-02-05T10:17:37.919Z,9.23
2023-02-05T10:20:15.224Z,6.50
2023-02-05T10:23:02.044Z,5.18
2023-02-05T10:25:57.191Z,3.67
2023-02-05T10:28:46.177Z,24.42
2023-02-05T10:31:50.673Z,9.10
2023-02-05T10:34:32.628Z,6.88
2023-02-05T10:37:03.668Z,2.35
2023-02-05T10:39:57.141Z,5.03
2023-02-05T10:42:36.638Z,25.58
2023-02-05T10:45:31.314Z,11.88
2023-02-05T10:48:33.662Z,3.72
2023-02-05T10:54:29.690Z,2.60
2023-02-05T10:56:58.874Z,3.80
2023-02-05T10:59:32.763Z,3.03
2023-02-05T11:02:09.918Z,2.65
2023-02-05T11:04:53.134Z,11.45
2023-02-05T11:07:35.668Z,5.22
2023-02-05T11:10:19.142Z,5.28
2023-02-05T11:12:54.916Z,5.32
2023-02-05T11:15:33.602Z,5.22
2023-02-05T11:18:06.591Z,13.50
2023-02-05T11:20:40.725Z,4.15
2023-02-05T11:23:28.263Z,15.93
2023-02-05T11:33:12.950Z,2.08
2023-02-05T11:36:04.034Z,4.00
2023-02-05T11:38:51.669Z,4.95
2023-02-05T11:41:52.492Z,35.75
2023-02-05T11:44:22.193Z,3.17
2023-02-05T11:50:25.242Z,5.68
2023-02-05T11:52:54.588Z,4.63
2023-02-05T11:55:29.756Z,3.35
2023-02-05T11:58:06.741Z,3.50
2023-02-05T12:01:01.301Z,5.35
2023-02-05T12:03:32.478Z,4.25
2023-02-05T12:13:32.742Z,3.40
2023-02-05T12:16:42.983Z,5.13
2023-02-05T12:19:31.132Z,4.70
2023-02-05T12:28:08.242Z,8.32
2023-02-05T12:31:09.457Z,4.10
2023-02-05T12:33:57.689Z,3.13
2023-02-05T12:36:58.414Z,6.95
2023-02-05T12:39:46.839Z,10.15
2023-02-05T12:42:40.891Z,4.43
2023-02-05T12:46:22.802Z,3.00
2023-02-05T12:49:42.088Z,11.77
2023-02-05T12:52:24.264Z,5.18
2023-02-05T12:55:00.904Z,2.90
2023-02-05T12:57:53.881Z,3.08
2023-02-05T13:10:56.763Z,12.48
2023-02-05T13:17:11.284Z,3.73
2023-02-05T13:30:32.713Z,3.35
2023-02-05T13:33:06.827Z,47.03
2023-02-05T13:35:54.966Z,42.95
2023-02-05T13:38:43.192Z,5.55
2023-02-05T13:41:30.503Z,6.15
2023-02-05T13:44:17.558Z,6.10
2023-02-05T13:47:12.682Z,6.05
2023-02-05T13:50:22.844Z,4.78
2023-02-05T13:53:03.956Z,5.03
2023-02-05T13:55:41.298Z,3.03
2023-02-05T13:58:24.224Z,2.85
2023-02-05T14:01:04.883Z,4.57
2023-02-05T14:03:40.366Z,2.95
2023-02-05T14:06:21.883Z,6.07
2023-02-05T14:09:10.390Z,9.30
2023-02-05T14:12:21.936Z,6.20
2023-02-05T14:25:07.421Z,3.35
2023-02-05T15:08:52.188Z,32.15
2023-02-05T15:12:08.132Z,133.23
2023-02-05T15:18:50.062Z,40.88
2023-02-05T15:25:24.823Z,5.82
2023-02-05T15:28:25.284Z,7.45
2023-02-05T15:31:10.557Z,7.72
2023-02-05T15:40:03.370Z,101.45
2023-02-05T15:42:37.173Z,102.80
2023-02-05T15:45:28.086Z,134.13
2023-02-05T15:48:06.312Z,61.25
2023-02-05T15:51:00.867Z,67.10
2023-02-05T15:53:45.065Z,29.52
2023-02-05T15:56:40.751Z,24.83
2023-02-05T15:59:11.711Z,25.80
2023-02-05T16:01:48.363Z,30.35
2023-02-05T16:04:32.675Z,34.47
2023-02-05T17:14:38.085Z,63.75
2023-02-05T17:17:25.791Z,13.88
2023-02-05T17:23:35.404Z,6.10
2023-02-05T18:29:58.605Z,6.40
2023-02-05T18:32:26.863Z,8.52
2023-02-05T18:38:02.720Z,7.78
2023-02-05T18:40:57.215Z,12.68
2023-02-05T18:43:25.323Z,7.65
